Terminal Aerodrome Forecast
Issued by NWS

Home | Current Version | Previous Version | Text Only | Print | Product List | Glossary On
Versions: 1 2 3 4 5 6 7 8 9 10 11 12 13 14 15 16 17 18 19 20 21
000
FTUS43 KBIS 172338
TAFJMS
TAF
KJMS 172338Z 1800/1824 32006KT P6SM OVC200
     FM180200 34005KT P6SM BKN250
     FM180500 33006KT P6SM FEW300
     FM181000 32011KT P6SM SCT030 BKN045
     FM181500 32017G25KT P6SM SCT050
     FM181900 31018G27KT P6SM FEW200=

USA.gov is the U.S. government's official web portal to all federal, state and local government web resources and services.